Time;durP1;ratioP1;P1;durP2;ratioP2;P2;SDS_P1;SDS_P2;PMS_P1;PMS_P2;Temp;Humidity;BMP_temperature;BMP_pressure;BME280_temperature;BME280_humidity;BME280_pressure;Samples;Min_cycle;Max_cycle;Signal;HPM_P1;HPM_P2
2022/05/03 00:04:30;;;;;;;10.85;5.88;;;;;;;5.01;100.00;101886.31;10360354;28;20038;-72
2022/05/03 00:09:55;;;;;;;10.85;6.22;;;;;;;5.10;100.00;101899.84;10358091;28;20088;-72
2022/05/03 00:14:56;;;;;;;12.35;8.45;;;;;;;4.76;100.00;101857.69;10355055;28;20078;-72
2022/05/03 00:19:57;;;;;;;16.63;11.02;;;;;;;4.99;100.00;101896.59;10318119;28;20023;-72
2022/05/03 00:24:57;;;;;;;14.73;9.80;;;;;;;5.07;100.00;101908.44;10317249;28;20030;-72
2022/05/03 00:29:58;;;;;;;12.57;9.60;;;;;;;4.97;100.00;101898.66;10333819;28;20031;-72
2022/05/03 00:34:59;;;;;;;14.45;10.82;;;;;;;4.94;100.00;101909.97;10317064;28;20042;-72
2022/05/03 00:40:01;;;;;;;15.25;11.07;;;;;;;4.86;100.00;101912.81;10313186;28;20186;-72
2022/05/03 00:45:20;;;;;;;16.15;11.30;;;;;;;4.78;100.00;101897.38;10321623;28;20039;-72
2022/05/03 00:50:28;;;;;;;16.80;10.98;;;;;;;4.71;100.00;101895.59;10327304;28;20027;-72
2022/05/03 00:55:59;;;;;;;14.73;11.05;;;;;;;4.63;100.00;101897.41;10312326;28;20042;-71
2022/05/03 01:01:34;;;;;;;20.83;10.52;;;;;;;4.56;100.00;101904.66;10329922;28;20039;-72
2022/05/03 01:07:10;;;;;;;18.02;12.32;;;;;;;4.44;100.00;101887.94;10327880;28;20041;-72
2022/05/03 01:12:16;;;;;;;21.63;13.55;;;;;;;4.41;100.00;101896.47;10317708;28;20047;-72
2022/05/03 01:17:35;;;;;;;17.73;12.63;;;;;;;4.41;100.00;101892.91;10326451;28;20340;-72
2022/05/03 01:23:01;;;;;;;19.67;13.95;;;;;;;4.30;100.00;101868.84;10310703;28;20045;-72
2022/05/03 01:28:10;;;;;;;23.92;16.98;;;;;;;4.45;100.00;101888.78;10310743;28;20059;-72
2022/05/03 01:33:11;;;;;;;22.35;16.08;;;;;;;4.46;100.00;101885.00;10309645;28;20046;-71
2022/05/03 01:38:33;;;;;;;23.80;14.63;;;;;;;4.45;100.00;101886.88;10309669;28;20150;-72
2022/05/03 01:43:41;;;;;;;23.25;15.48;;;;;;;4.32;100.00;101870.34;10309581;28;20030;-72
2022/05/03 01:54:58;;;;;;;26.98;16.60;;;;;;;4.31;100.00;101876.00;10308203;28;20118;-72
2022/05/03 02:00:05;;;;;;;25.92;17.10;;;;;;;4.24;100.00;101868.56;10308399;28;20046;-72
2022/05/03 02:05:06;;;;;;;27.35;17.10;;;;;;;4.07;100.00;101853.41;10305511;28;20039;-73
2022/05/03 02:10:36;;;;;;;25.55;16.88;;;;;;;4.17;100.00;101874.94;10358959;28;20056;-72
2022/05/03 02:15:39;;;;;;;24.00;16.80;;;;;;;4.08;100.00;101876.91;10346461;28;20054;-72
2022/05/03 02:21:13;;;;;;;26.95;16.70;;;;;;;4.08;100.00;101876.91;10347601;28;20042;-72
2022/05/03 02:26:13;;;;;;;26.23;18.35;;;;;;;4.05;100.00;101871.81;10348374;28;20582;-72
2022/05/03 02:31:30;;;;;;;27.48;18.65;;;;;;;4.02;100.00;101870.31;10345699;28;20052;-72
2022/05/03 02:36:30;;;;;;;30.40;19.00;;;;;;;3.90;100.00;101857.34;10345375;28;20041;-72
2022/05/03 02:41:38;;;;;;;29.50;19.10;;;;;;;4.02;100.00;101872.22;10314518;28;20044;-72
2022/05/03 02:46:57;;;;;;;31.35;19.90;;;;;;;4.01;100.00;101870.50;10348934;28;20042;-72
2022/05/03 02:52:21;;;;;;;32.25;20.13;;;;;;;3.97;100.00;101861.00;10347778;28;20038;-73
2022/05/03 02:57:45;;;;;;;35.15;22.10;;;;;;;4.05;100.00;101855.47;10346399;28;20053;-72
2022/05/03 03:03:01;;;;;;;36.83;22.02;;;;;;;4.30;100.00;101868.84;10317468;28;20058;-72
2022/05/03 03:08:02;;;;;;;32.83;20.58;;;;;;;4.24;100.00;101859.53;10307657;28;20027;-72
2022/05/03 03:13:11;;;;;;;33.40;20.98;;;;;;;4.32;100.00;101867.63;10321764;28;20081;-72
2022/05/03 03:18:15;;;;;;;34.08;21.10;;;;;;;4.36;100.00;101870.81;10320528;28;20097;-72
2022/05/03 03:23:15;;;;;;;41.40;23.60;;;;;;;4.44;100.00;101871.56;10305021;28;20583;-70
2022/05/03 03:28:19;;;;;;;34.75;23.02;;;;;;;4.58;100.00;101867.13;10336030;28;20178;-73
2022/05/03 03:33:19;;;;;;;32.90;22.77;;;;;;;4.67;100.00;101856.94;10337627;28;20130;-72
2022/05/03 03:38:20;;;;;;;35.95;20.70;;;;;;;4.79;100.00;101852.69;10307095;28;20039;-73
2022/05/03 03:43:20;;;;;;;35.20;21.15;;;;;;;4.90;100.00;101867.72;10320849;28;20082;-72
2022/05/03 03:48:21;;;;;;;34.35;22.45;;;;;;;4.95;100.00;101857.06;10317752;28;20027;-73
2022/05/03 03:53:22;;;;;;;29.95;20.73;;;;;;;5.04;100.00;101864.13;10304159;28;20043;-72
2022/05/03 03:58:22;;;;;;;32.70;21.83;;;;;;;5.02;100.00;101847.09;10306008;28;20066;-72
2022/05/03 04:03:23;;;;;;;34.58;22.50;;;;;;;5.05;100.00;101865.78;10337626;28;20042;-72
2022/05/03 04:08:25;;;;;;;33.15;20.98;;;;;;;4.10;100.00;101714.06;10321122;28;20069;-72
2022/05/03 04:13:26;;;;;;;34.47;22.58;;;;;;;4.90;100.00;101845.91;10306411;28;21767;-73
2022/05/03 04:18:44;;;;;;;32.88;21.10;;;;;;;5.15;100.00;101868.22;10348413;28;20026;-73
2022/05/03 04:23:48;;;;;;;36.72;23.00;;;;;;;5.30;100.00;101850.94;10309119;28;20119;-72
2022/05/03 04:28:48;;;;;;;39.70;24.10;;;;;;;5.57;100.00;101857.47;10326916;28;20047;-72
2022/05/03 04:33:49;;;;;;;33.90;22.65;;;;;;;5.77;100.00;101863.94;10328278;28;20043;-72
2022/05/03 04:38:49;;;;;;;35.03;24.20;;;;;;;5.94;100.00;101856.28;10312712;28;20031;-72
2022/05/03 04:43:50;;;;;;;37.03;23.25;;;;;;;6.20;100.00;101863.84;10311902;28;20038;-72
2022/05/03 04:48:50;;;;;;;35.00;21.33;;;;;;;6.36;100.00;101870.03;10310281;28;20042;-72
2022/05/03 04:53:51;;;;;;;29.60;19.92;;;;;;;6.44;100.00;101864.41;10310559;28;20053;-73
2022/05/03 04:58:55;;;;;;;25.42;18.92;;;;;;;6.58;100.00;101859.84;10310864;28;20081;-72
2022/05/03 05:03:55;;;;;;;28.27;18.33;;;;;;;6.65;100.00;101864.28;10339713;28;20030;-72
2022/05/03 05:08:56;;;;;;;23.33;16.58;;;;;;;6.81;100.00;101874.03;10348971;28;20046;-72
2022/05/03 05:13:56;;;;;;;23.25;16.27;;;;;;;6.80;100.00;101871.50;10350615;28;20030;-73
2022/05/03 05:18:57;;;;;;;22.60;16.85;;;;;;;6.92;100.00;101878.06;10351294;28;20030;-72
2022/05/03 05:23:57;;;;;;;23.23;16.52;;;;;;;7.06;100.00;101874.31;10349521;28;20030;-72
2022/05/03 05:28:58;;;;;;;27.48;18.20;;;;;;;7.22;100.00;101888.69;10331802;28;20050;-72
2022/05/03 05:33:58;;;;;;;30.02;18.50;;;;;;;7.36;100.00;101887.69;10350909;28;20221;-72
2022/05/03 05:38:59;;;;;;;32.42;17.63;;;;;;;7.42;100.00;101875.00;10350483;28;20034;-73
2022/05/03 05:43:59;;;;;;;28.83;19.55;;;;;;;7.54;100.00;101888.94;10349887;28;20053;-73
2022/05/03 05:49:00;;;;;;;31.05;19.00;;;;;;;7.57;100.00;101881.16;10349857;28;20391;-72
2022/05/03 05:54:00;;;;;;;27.25;18.73;;;;;;;7.75;100.00;101875.06;10308404;28;20045;-73
2022/05/03 05:59:01;;;;;;;27.80;19.15;;;;;;;7.94;100.00;101886.19;10308467;28;20399;-72
2022/05/03 06:04:02;;;;;;;31.42;19.10;;;;;;;8.09;100.00;101881.34;10309912;28;20038;-72
2022/05/03 06:09:02;;;;;;;29.92;20.38;;;;;;;8.26;100.00;101888.06;10307704;28;20044;-72
2022/05/03 06:14:05;;;;;;;31.02;20.30;;;;;;;8.41;100.00;101896.09;10308619;28;20066;-72
2022/05/03 06:19:05;;;;;;;41.63;23.83;;;;;;;8.36;100.00;101881.31;10321841;28;20078;-72
2022/05/03 06:24:06;;;;;;;36.05;20.70;;;;;;;8.55;100.00;101896.88;10332799;28;20537;-73
2022/05/03 06:29:08;;;;;;;38.95;22.40;;;;;;;8.67;100.00;101902.56;10348595;28;20541;-73
2022/05/03 06:34:09;;;;;;;40.78;25.35;;;;;;;8.65;100.00;101897.28;10348809;28;20038;-72
2022/05/03 06:39:09;;;;;;;40.30;25.38;;;;;;;8.69;100.00;101904.03;10329645;28;20081;-72
2022/05/03 06:44:10;;;;;;;44.97;27.45;;;;;;;8.72;100.00;101923.88;10329772;28;20046;-73
2022/05/03 06:49:10;;;;;;;45.55;27.77;;;;;;;8.69;100.00;101919.66;10311873;28;20046;-72
2022/05/03 06:54:11;;;;;;;43.95;26.63;;;;;;;8.77;100.00;101930.41;10307400;28;20042;-72
2022/05/03 06:59:11;;;;;;;47.15;25.73;;;;;;;8.80;100.00;101926.38;10321246;28;20062;-72
2022/05/03 07:04:12;;;;;;;30.90;17.65;;;;;;;8.95;100.00;101934.34;10306954;28;20039;-72
2022/05/03 07:09:12;;;;;;;20.40;10.00;;;;;;;8.98;100.00;101940.25;10313403;28;20061;-73
2022/05/03 07:14:15;;;;;;;20.92;6.75;;;;;;;9.18;100.00;101953.06;10345321;28;20437;-72
2022/05/03 07:24:35;;;;;;;12.10;5.40;;;;;;;9.24;100.00;101954.91;10344897;28;20490;-72
2022/05/03 07:29:35;;;;;;;15.80;5.15;;;;;;;9.31;100.00;101963.97;10344522;28;20058;-72
2022/05/03 07:34:36;;;;;;;19.10;5.15;;;;;;;9.29;100.00;101963.38;10365885;28;20037;-73
2022/05/03 07:39:36;;;;;;;20.65;5.85;;;;;;;9.41;100.00;101967.09;10384555;28;20042;-73
2022/05/03 07:44:37;;;;;;;16.10;5.40;;;;;;;9.63;100.00;101970.38;10364813;28;20033;-73
2022/05/03 07:49:37;;;;;;;17.08;4.80;;;;;;;9.67;100.00;101976.25;10352546;28;20029;-72
2022/05/03 07:54:42;;;;;;;12.38;5.00;;;;;;;9.75;100.00;101967.72;10351053;28;20058;-73
2022/05/03 07:59:42;;;;;;;30.00;5.93;;;;;;;9.98;100.00;101966.28;10352168;28;20471;-72
2022/05/03 08:04:43;;;;;;;21.08;5.95;;;;;;;10.36;100.00;101970.91;10350679;28;20041;-72
2022/05/03 08:09:44;;;;;;;19.00;5.88;;;;;;;10.39;100.00;101967.69;10352129;28;20038;-73
2022/05/03 08:14:44;;;;;;;16.88;5.93;;;;;;;10.84;100.00;101962.75;10349474;28;20038;-72
2022/05/03 08:19:45;;;;;;;16.73;4.70;;;;;;;11.10;100.00;101964.34;10348278;28;20031;-71
2022/05/03 08:24:45;;;;;;;18.48;5.13;;;;;;;11.22;100.00;101982.84;10346643;28;20046;-72
2022/05/03 08:29:46;;;;;;;22.83;6.22;;;;;;;10.86;100.00;101984.56;10350957;28;20034;-72
2022/05/03 08:34:46;;;;;;;23.63;6.45;;;;;;;10.80;100.00;101979.97;10351157;28;20073;-72
2022/05/03 08:45:06;;;;;;;21.65;4.97;;;;;;;10.74;100.00;102002.91;10347376;28;20038;-70
2022/05/03 08:50:08;;;;;;;20.52;3.95;;;;;;;10.82;100.00;101995.19;10351543;28;20471;-73
2022/05/03 08:55:11;;;;;;;18.45;3.92;;;;;;;10.60;100.00;101955.38;10351428;28;20050;-73
2022/05/03 09:00:13;;;;;;;22.60;4.47;;;;;;;11.19;100.00;101997.13;10349843;28;20046;-72
2022/05/03 09:05:13;;;;;;;24.80;6.25;;;;;;;11.39;100.00;102005.97;10308113;28;20042;-73
2022/05/03 09:10:16;;;;;;;18.42;4.43;;;;;;;11.45;100.00;101999.53;10309620;28;20484;-72
2022/05/03 09:15:30;;;;;;;20.40;4.88;;;;;;;11.29;100.00;101961.56;10309787;28;20034;-72
2022/05/03 09:25:50;;;;;;;13.25;2.90;;;;;;;11.97;100.00;102012.81;10334698;28;20592;-73
2022/05/03 09:30:51;;;;;;;11.45;3.20;;;;;;;12.02;100.00;102009.34;10322078;28;20046;-72
2022/05/03 09:35:52;;;;;;;11.77;2.40;;;;;;;11.97;100.00;101992.63;10323269;28;20054;-75
2022/05/03 09:40:54;;;;;;;14.80;5.85;;;;;;;11.94;100.00;102012.44;10348154;28;20243;-72
2022/05/03 09:46:04;;;;;;;16.98;3.10;;;;;;;12.01;100.00;102002.13;10349312;28;20110;-72
2022/05/03 09:51:05;;;;;;;10.90;2.22;;;;;;;12.45;100.00;102014.56;10348078;28;20490;-72
2022/05/03 09:56:09;;;;;;;9.20;2.65;;;;;;;12.68;100.00;102008.22;10347256;28;20054;-73
2022/05/03 10:01:10;;;;;;;11.82;2.55;;;;;;;12.49;100.00;102026.00;10343906;28;20049;-72
2022/05/03 10:06:11;;;;;;;9.43;2.25;;;;;;;12.50;100.00;102011.91;10346474;28;20426;-72
2022/05/03 10:11:12;;;;;;;12.38;2.45;;;;;;;12.70;100.00;102010.75;10344026;28;20060;-71
2022/05/03 10:21:32;;;;;;;11.88;1.70;;;;;;;12.53;94.98;102010.63;10343671;28;20312;-72
2022/05/03 10:26:54;;;;;;;8.70;2.55;;;;;;;12.87;97.71;102016.38;10345601;28;20043;-72
2022/05/03 10:31:57;;;;;;;8.82;2.60;;;;;;;13.23;92.57;102001.41;10344912;28;20092;-72
2022/05/03 10:36:58;;;;;;;9.50;2.45;;;;;;;13.33;91.42;101998.03;10344649;28;20066;-72
2022/05/03 10:42:09;;;;;;;9.38;2.25;;;;;;;13.93;89.95;101996.69;10346793;28;20034;-73
2022/05/03 10:47:11;;;;;;;11.88;3.08;;;;;;;13.99;88.69;101981.00;10345441;28;20022;-73
2022/05/03 10:52:16;;;;;;;10.23;2.33;;;;;;;14.28;86.94;101985.41;10344015;28;20038;-72
2022/05/03 10:57:16;;;;;;;12.57;2.75;;;;;;;14.49;82.88;101980.16;10342376;28;20042;-72
2022/05/03 11:02:19;;;;;;;12.75;3.30;;;;;;;14.46;82.35;101977.91;10346149;28;20034;-72
2022/05/03 11:07:25;;;;;;;7.82;2.25;;;;;;;14.36;83.44;101983.28;10346418;28;20138;-73
2022/05/03 11:12:58;;;;;;;9.13;2.85;;;;;;;14.24;82.53;101975.91;10343601;28;20034;-71
2022/05/03 11:17:59;;;;;;;8.60;2.35;;;;;;;14.20;81.42;101962.78;10321853;28;20055;-72
2022/05/03 11:22:59;;;;;;;5.40;1.90;;;;;;;14.54;81.59;101963.63;10320179;28;20095;-72
2022/05/03 11:28:00;;;;;;;9.48;2.20;;;;;;;14.73;80.41;101955.88;10305367;28;20050;-72
2022/05/03 11:33:00;;;;;;;9.63;2.45;;;;;;;14.48;79.48;101948.00;10304829;28;20049;-72
2022/05/03 11:38:03;;;;;;;10.25;2.53;;;;;;;14.16;80.77;101959.72;10307097;28;20038;-72
2022/05/03 11:43:03;;;;;;;9.65;2.55;;;;;;;14.05;80.66;101950.38;10319383;28;20043;-71
2022/05/03 11:48:04;;;;;;;8.20;2.78;;;;;;;14.48;78.92;101934.16;10310736;28;20035;-72
2022/05/03 11:58:35;;;;;;;10.07;2.05;;;;;;;14.24;76.34;101926.06;10304753;28;20031;-72
2022/05/03 12:03:46;;;;;;;6.70;1.45;;;;;;;14.50;76.27;101930.03;10321416;28;20035;-70
2022/05/03 12:08:48;;;;;;;7.85;2.10;;;;;;;14.61;76.45;101939.34;10303258;28;20046;-71
2022/05/03 12:13:48;;;;;;;6.88;1.92;;;;;;;15.19;76.36;101948.13;10303742;28;20038;-72
2022/05/03 12:18:49;;;;;;;8.15;1.98;;;;;;;15.09;73.72;101923.91;10326213;28;20034;-72
2022/05/03 12:23:51;;;;;;;4.97;1.70;;;;;;;14.81;72.38;101935.19;10312133;28;20051;-72
2022/05/03 12:28:59;;;;;;;6.07;1.48;;;;;;;15.18;74.04;101931.78;10329985;28;20042;-72
2022/05/03 12:34:00;;;;;;;4.85;1.60;;;;;;;15.53;71.08;101923.84;10328878;28;20098;-72
2022/05/03 12:39:16;;;;;;;5.22;1.50;;;;;;;16.28;69.30;101904.50;10349224;28;20045;-72
2022/05/03 12:44:19;;;;;;;6.20;1.80;;;;;;;16.60;69.34;101867.44;10335283;28;20085;-73
2022/05/03 12:49:21;;;;;;;5.65;1.73;;;;;;;15.69;65.82;101902.63;10329149;28;20038;-72
2022/05/03 12:54:21;;;;;;;4.63;1.50;;;;;;;16.21;67.02;101903.91;10330765;28;20042;-72
2022/05/03 12:59:22;;;;;;;11.70;2.30;;;;;;;17.37;67.03;101901.09;10332787;28;20045;-71
2022/05/03 13:04:23;;;;;;;10.23;2.22;;;;;;;16.89;63.64;101875.38;10310391;28;20522;-72
2022/05/03 13:09:24;;;;;;;13.00;1.98;;;;;;;16.77;65.52;101888.66;10322908;28;20050;-72
2022/05/03 13:14:26;;;;;;;8.43;2.08;;;;;;;16.51;64.91;101874.59;10336341;28;20057;-72
2022/05/03 13:19:27;;;;;;;16.15;2.22;;;;;;;15.57;66.76;101898.34;10322775;28;20027;-71
2022/05/03 13:24:27;;;;;;;7.90;2.10;;;;;;;15.06;69.63;101891.13;10336390;28;20035;-69
2022/05/03 13:29:30;;;;;;;10.52;3.25;;;;;;;14.93;69.14;101877.69;10329216;28;20046;-71
2022/05/03 13:34:30;;;;;;;9.95;2.22;;;;;;;14.96;72.70;101907.66;10334820;28;20468;-71
2022/05/03 13:44:50;;;;;;;13.98;1.80;;;;;;;16.08;66.67;101887.66;10348898;28;20065;-70
2022/05/03 13:49:50;;;;;;;6.35;1.75;;;;;;;16.09;66.48;101883.81;10317410;28;20101;-69
2022/05/03 13:54:51;;;;;;;9.60;2.08;;;;;;;16.08;67.60;101898.78;10309901;28;20046;-69
2022/05/03 13:59:51;;;;;;;8.25;2.20;;;;;;;16.30;65.12;101885.59;10309556;28;20034;-70
2022/05/03 14:04:52;;;;;;;10.50;2.75;;;;;;;16.60;65.58;101878.56;10308714;28;20571;-71
2022/05/03 14:09:53;;;;;;;10.82;3.40;;;;;;;17.81;61.66;101874.69;10307184;28;20038;-72
2022/05/03 14:14:54;;;;;;;13.73;2.83;;;;;;;17.64;61.30;101863.84;10324565;28;20058;-71
2022/05/03 14:19:54;;;;;;;10.27;2.00;;;;;;;17.46;61.94;101868.81;10318691;28;20073;-71
2022/05/03 14:24:55;;;;;;;11.05;2.95;;;;;;;17.46;61.67;101846.53;10318857;28;20034;-72
2022/05/03 14:29:55;;;;;;;11.88;2.38;;;;;;;18.21;59.07;101862.72;10306521;28;20081;-72
2022/05/03 14:34:56;;;;;;;8.38;1.98;;;;;;;18.15;58.78;101874.97;10323588;28;20077;-72
2022/05/03 14:39:56;;;;;;;9.60;2.45;;;;;;;17.73;59.07;101820.38;10305666;28;20034;-72
2022/05/03 14:44:57;;;;;;;6.22;2.30;;;;;;;18.04;56.05;101837.09;10306274;28;20039;-70
2022/05/03 14:49:58;;;;;;;8.68;2.30;;;;;;;18.90;55.37;101840.72;10323950;28;20034;-70
2022/05/03 14:54:58;;;;;;;6.80;2.13;;;;;;;18.67;55.99;101845.81;10348081;28;20565;-70
2022/05/03 15:05:21;;;;;;;10.20;2.00;;;;;;;19.34;55.79;101856.63;10306212;28;20787;-70
2022/05/03 15:10:22;;;;;;;9.85;2.08;;;;;;;18.62;54.73;101845.00;10312245;28;20053;-68
2022/05/03 21:37:53;;;;;;;8.48;3.03;;;;;;;7.61;100.00;101955.59;10439069;22;20087;-71
2022/05/03 21:42:54;;;;;;;11.85;3.08;;;;;;;7.62;100.00;101957.25;10387709;28;20037;-71
2022/05/03 21:47:54;;;;;;;13.75;2.85;;;;;;;7.64;100.00;101963.38;10399396;28;20523;-71
2022/05/03 21:52:55;;;;;;;14.27;2.75;;;;;;;7.62;100.00;101957.25;10418383;28;20038;-72
2022/05/03 21:57:56;;;;;;;16.73;3.83;;;;;;;7.65;100.00;101967.81;10417151;28;20029;-71
2022/05/03 22:02:56;;;;;;;9.25;3.53;;;;;;;7.58;100.00;101942.28;10360682;28;20045;-71
2022/05/03 22:07:57;;;;;;;14.38;2.78;;;;;;;7.60;100.00;101948.41;10353152;28;20485;-71
2022/05/03 22:12:57;;;;;;;11.60;3.50;;;;;;;7.70;100.00;101970.78;10353711;28;20470;-72
2022/05/03 22:17:58;;;;;;;14.13;3.03;;;;;;;7.30;100.00;101893.13;10353334;28;20026;-71
2022/05/03 22:22:58;;;;;;;18.00;3.58;;;;;;;7.61;100.00;101950.94;10354099;28;20030;-71
2022/05/03 22:27:58;;;;;;;10.98;3.17;;;;;;;7.56;100.00;101944.38;10339114;28;20030;-71
2022/05/03 22:32:59;;;;;;;11.02;3.00;;;;;;;7.59;100.00;101963.19;10356127;28;20030;-71
2022/05/03 22:38:00;;;;;;;13.60;2.88;;;;;;;7.61;100.00;101980.25;10338667;23;20094;-83
2022/05/03 22:43:00;;;;;;;5.60;2.30;;;;;;;7.50;100.00;101969.88;10370891;28;20060;-82
2022/05/03 22:48:01;;;;;;;10.05;3.10;;;;;;;7.56;100.00;101972.63;10386791;28;20022;-83
2022/05/03 22:53:01;;;;;;;11.20;3.65;;;;;;;7.59;100.00;101979.63;10385250;28;20357;-83
2022/05/03 22:58:01;;;;;;;8.63;2.63;;;;;;;7.51;100.00;101974.31;10385726;28;20099;-83
2022/05/03 23:03:02;;;;;;;11.02;3.83;;;;;;;7.35;100.00;101946.25;10386017;28;20037;-83
2022/05/03 23:08:03;;;;;;;13.02;3.40;;;;;;;7.42;100.00;101966.28;10402223;28;20034;-83
2022/05/03 23:13:04;;;;;;;13.50;3.10;;;;;;;7.25;100.00;101956.75;10386339;28;20060;-83
2022/05/03 23:18:04;;;;;;;9.35;2.85;;;;;;;7.32;100.00;101974.06;10369557;28;20037;-83
2022/05/03 23:23:05;;;;;;;10.80;2.67;;;;;;;7.25;100.00;101956.75;10383763;28;20045;-84
2022/05/03 23:28:05;;;;;;;9.35;3.22;;;;;;;7.25;100.00;101951.25;10383581;28;20037;-82
2022/05/03 23:33:06;;;;;;;10.13;3.53;;;;;;;7.19;100.00;101941.13;10368493;28;20041;-83
2022/05/03 23:38:07;;;;;;;11.13;2.80;;;;;;;7.21;100.00;101934.41;10369071;28;20060;-84
2022/05/03 23:43:07;;;;;;;10.32;3.53;;;;;;;7.34;100.00;101965.63;10383840;28;20097;-83
2022/05/03 23:48:08;;;;;;;11.05;4.72;;;;;;;7.27;100.00;101949.16;10382449;28;20025;-83
2022/05/03 23:53:08;;;;;;;12.75;3.22;;;;;;;7.39;100.00;101968.59;10381041;28;20036;-83
2022/05/03 23:58:09;;;;;;;11.55;3.28;;;;;;;7.37;100.00;101967.97;10398032;28;20033;-83
